createdAt,value
2023-03-22T00:05:07.621Z,69.60
2023-03-22T00:10:29.488Z,61.47
2023-03-22T00:15:51.363Z,70.13
2023-03-22T00:21:15.232Z,69.43
2023-03-22T00:26:37.060Z,62.17
2023-03-22T00:31:58.896Z,71.43
2023-03-22T00:37:21.592Z,71.13
2023-03-22T00:42:43.634Z,75.95
2023-03-22T00:48:05.763Z,68.60
2023-03-22T00:53:27.773Z,68.88
2023-03-22T00:58:49.607Z,64.05
2023-03-22T01:04:11.848Z,70.15
2023-03-22T01:09:34.150Z,66.03
2023-03-22T01:14:56.010Z,66.50
2023-03-22T01:20:18.254Z,65.93
2023-03-22T01:25:40.080Z,63.35
2023-03-22T01:31:03.002Z,62.58
2023-03-22T01:36:24.981Z,69.80
2023-03-22T01:41:46.796Z,67.85
2023-03-22T01:47:09.637Z,68.50
2023-03-22T01:52:31.624Z,86.72
2023-03-22T01:57:54.764Z,82.47
2023-03-22T02:03:24.884Z,100.15
2023-03-22T02:08:46.865Z,111.82
2023-03-22T02:14:13.704Z,135.93
2023-03-22T02:19:57.866Z,202.57
2023-03-22T02:25:28.644Z,155.55
2023-03-22T02:30:53.113Z,215.23
2023-03-22T02:36:18.053Z,213.93
2023-03-22T02:41:46.313Z,134.00
2023-03-22T02:47:14.226Z,157.38
2023-03-22T02:52:53.842Z,216.00
2023-03-22T02:58:24.127Z,173.40
2023-03-22T03:03:49.197Z,164.25
2023-03-22T03:09:11.227Z,192.57
2023-03-22T03:14:33.147Z,213.32
2023-03-22T03:20:21.214Z,288.90
2023-03-22T03:26:27.693Z,248.65
2023-03-22T03:32:04.976Z,275.25
2023-03-22T03:37:35.996Z,289.85
2023-03-22T03:43:01.650Z,198.90
2023-03-22T03:48:28.382Z,127.03
2023-03-22T03:53:50.229Z,118.72
2023-03-22T03:59:12.070Z,211.68
2023-03-22T04:04:34.009Z,203.52
2023-03-22T04:09:55.981Z,232.70
2023-03-22T04:15:18.002Z,249.93
2023-03-22T04:20:40.464Z,237.57
2023-03-22T04:26:02.506Z,221.85
2023-03-22T04:31:25.538Z,254.80
2023-03-22T04:36:47.397Z,159.07
2023-03-22T04:42:09.649Z,166.68
2023-03-22T04:47:31.505Z,175.07
2023-03-22T04:52:53.450Z,208.48
2023-03-22T04:58:15.294Z,172.35
2023-03-22T05:03:37.308Z,166.88
2023-03-22T05:09:00.183Z,142.15
2023-03-22T05:14:22.075Z,144.52
2023-03-22T05:19:43.973Z,130.95
2023-03-22T05:25:06.874Z,240.27
2023-03-22T05:30:30.073Z,101.32
2023-03-22T05:35:51.952Z,178.27
2023-03-22T05:41:14.543Z,73.57
2023-03-22T05:46:36.440Z,69.78
2023-03-22T05:51:58.281Z,68.82
2023-03-22T05:57:20.097Z,52.63
2023-03-22T06:02:47.585Z,60.42
2023-03-22T06:08:09.424Z,33.65
2023-03-22T06:13:31.482Z,42.70
2023-03-22T06:18:53.720Z,35.35
2023-03-22T06:24:15.785Z,33.20
2023-03-22T06:29:37.624Z,25.75
2023-03-22T06:34:59.478Z,21.88
2023-03-22T06:40:21.364Z,20.65
2023-03-22T06:45:43.227Z,20.40
2023-03-22T06:51:05.613Z,19.75
2023-03-22T06:56:27.556Z,18.13
2023-03-22T07:01:49.464Z,16.70
2023-03-22T07:07:11.387Z,15.70
2023-03-22T07:12:33.673Z,15.68
2023-03-22T07:17:55.711Z,16.77
2023-03-22T07:23:18.553Z,13.85
2023-03-22T07:28:40.595Z,15.57
2023-03-22T07:34:05.782Z,15.88
2023-03-22T07:39:27.752Z,14.75
2023-03-22T07:44:49.919Z,14.10
2023-03-22T07:50:12.941Z,13.55
2023-03-22T07:55:35.168Z,13.10
2023-03-22T08:00:57.159Z,13.43
2023-03-22T08:06:19.792Z,13.68
2023-03-22T08:11:41.649Z,15.60
2023-03-22T08:17:06.499Z,14.90
2023-03-22T08:22:28.402Z,17.40
2023-03-22T08:27:50.445Z,14.23
2023-03-22T08:33:12.709Z,14.48
2023-03-22T08:38:34.586Z,17.27
2023-03-22T08:43:56.534Z,16.48
2023-03-22T08:49:18.448Z,15.82
2023-03-22T08:54:40.298Z,16.52
2023-03-22T09:00:04.993Z,18.73
2023-03-22T09:05:26.946Z,17.02
2023-03-22T09:10:49.820Z,21.35
2023-03-22T09:16:12.151Z,20.60
2023-03-22T09:21:34.136Z,18.17
2023-03-22T09:26:55.999Z,21.25
2023-03-22T09:32:18.232Z,15.98
2023-03-22T09:37:40.075Z,19.90
2023-03-22T09:43:05.788Z,17.88
2023-03-22T09:48:32.075Z,16.70
2023-03-22T09:53:53.950Z,16.55
2023-03-22T09:59:21.336Z,15.93
2023-03-22T10:05:23.028Z,15.65
2023-03-22T10:10:45.365Z,13.55
2023-03-22T10:16:12.012Z,16.75
2023-03-22T10:21:35.785Z,16.27
2023-03-22T10:26:57.774Z,16.05
2023-03-22T10:32:45.214Z,15.43
2023-03-22T10:38:20.773Z,14.65
2023-03-22T10:43:43.679Z,13.10
2023-03-22T10:49:07.694Z,14.43
2023-03-22T10:54:30.235Z,15.50
2023-03-22T10:59:55.935Z,13.32
2023-03-22T11:05:25.643Z,14.63
2023-03-22T11:10:50.358Z,13.10
2023-03-22T11:16:17.577Z,11.43
2023-03-22T11:21:41.906Z,13.38
2023-03-22T11:27:22.936Z,11.40
2023-03-22T11:32:44.851Z,16.55
2023-03-22T11:38:06.690Z,13.07
2023-03-22T11:43:46.196Z,13.52
2023-03-22T11:49:12.859Z,12.82
2023-03-22T11:54:36.302Z,14.02
2023-03-22T12:00:08.033Z,13.77
2023-03-22T12:05:33.327Z,17.08
2023-03-22T12:11:25.411Z,11.68
2023-03-22T12:16:59.977Z,12.77
2023-03-22T12:22:30.721Z,10.98
2023-03-22T12:28:16.792Z,12.13
2023-03-22T12:33:49.733Z,11.00
2023-03-22T12:39:33.964Z,11.30
2023-03-22T12:45:12.762Z,11.63
2023-03-22T12:50:37.357Z,11.43
2023-03-22T12:56:01.551Z,12.95
2023-03-22T13:01:31.654Z,12.95
2023-03-22T13:06:53.900Z,13.15
2023-03-22T13:12:15.695Z,16.02
2023-03-22T13:17:44.407Z,9.18
2023-03-22T13:23:24.604Z,9.05
2023-03-22T13:29:01.834Z,13.00
2023-03-22T13:34:45.220Z,10.32
2023-03-22T13:40:14.942Z,10.63
2023-03-22T13:45:36.895Z,12.85
2023-03-22T13:51:10.628Z,11.98
2023-03-22T13:56:48.154Z,10.38
2023-03-22T14:02:10.455Z,11.52
2023-03-22T14:07:42.130Z,9.07
2023-03-22T14:13:16.788Z,10.32
2023-03-22T14:18:45.349Z,9.85
